createdAt,value
2023-04-27T00:02:13.374Z,12.90
2023-04-27T00:04:40.146Z,12.20
2023-04-27T00:07:06.642Z,15.85
2023-04-27T00:09:32.986Z,14.20
2023-04-27T00:11:59.336Z,13.38
2023-04-27T00:14:28.529Z,12.05
2023-04-27T00:16:55.776Z,19.80
2023-04-27T00:19:22.963Z,9.85
2023-04-27T00:21:49.403Z,13.77
2023-04-27T00:24:15.870Z,10.38
2023-04-27T00:26:42.466Z,18.35
2023-04-27T00:29:08.928Z,12.13
2023-04-27T00:31:35.537Z,10.70
2023-04-27T00:34:02.897Z,15.07
2023-04-27T00:36:29.287Z,13.93
2023-04-27T00:38:55.706Z,16.95
2023-04-27T00:41:23.017Z,15.23
2023-04-27T00:43:49.523Z,14.77
2023-04-27T00:46:16.928Z,13.30
2023-04-27T00:48:44.409Z,20.40
2023-04-27T00:51:10.849Z,16.35
2023-04-27T00:53:37.933Z,12.57
2023-04-27T00:56:06.488Z,15.77
2023-04-27T01:01:00.412Z,13.20
2023-04-27T01:03:27.226Z,12.77
2023-04-27T01:05:53.909Z,11.52
2023-04-27T01:08:20.600Z,12.63
2023-04-27T01:10:46.974Z,11.18
2023-04-27T01:13:13.427Z,15.18
2023-04-27T01:15:41.058Z,10.68
2023-04-27T01:18:07.781Z,17.03
2023-04-27T01:20:34.211Z,14.18
2023-04-27T01:23:01.065Z,14.10
2023-04-27T01:25:27.489Z,14.30
2023-04-27T01:27:54.366Z,12.73
2023-04-27T01:30:22.815Z,14.95
2023-04-27T01:35:16.660Z,12.02
2023-04-27T01:37:43.251Z,12.75
2023-04-27T01:40:10.707Z,12.00
2023-04-27T01:42:37.158Z,12.65
2023-04-27T01:45:04.116Z,11.55
2023-04-27T01:47:30.658Z,16.48
2023-04-27T01:49:57.014Z,14.98
2023-04-27T01:52:23.505Z,13.02
2023-04-27T01:54:50.056Z,13.00
2023-04-27T01:57:16.650Z,13.77
2023-04-27T01:59:43.275Z,12.27
2023-04-27T02:02:09.668Z,13.23
2023-04-27T02:04:36.684Z,12.90
2023-04-27T02:07:03.440Z,16.85
2023-04-27T02:09:29.765Z,11.77
2023-04-27T02:11:56.097Z,12.57
2023-04-27T02:14:22.711Z,21.50
2023-04-27T02:16:49.141Z,13.82
2023-04-27T02:19:15.722Z,11.93
2023-04-27T02:21:42.694Z,14.45
2023-04-27T02:24:09.955Z,13.75
2023-04-27T02:26:36.617Z,14.07
2023-04-27T02:29:03.838Z,13.75
2023-04-27T02:31:31.144Z,17.08
2023-04-27T02:33:57.541Z,16.50
2023-04-27T02:36:24.166Z,16.55
2023-04-27T02:38:50.608Z,16.85
2023-04-27T02:41:16.954Z,12.75
2023-04-27T02:43:43.298Z,18.30
2023-04-27T02:46:09.661Z,16.75
2023-04-27T02:48:36.086Z,20.52
2023-04-27T02:51:06.224Z,13.38
2023-04-27T02:53:32.965Z,14.68
2023-04-27T02:55:59.436Z,17.63
2023-04-27T02:58:26.319Z,18.23
2023-04-27T03:00:56.816Z,26.10
2023-04-27T03:03:24.183Z,17.45
2023-04-27T03:05:50.856Z,13.32
2023-04-27T03:08:17.267Z,19.08
2023-04-27T03:10:43.638Z,16.70
2023-04-27T03:13:09.985Z,12.98
2023-04-27T03:15:36.384Z,14.52
2023-04-27T03:18:02.867Z,14.80
2023-04-27T03:20:29.206Z,16.90
2023-04-27T03:22:55.609Z,18.38
2023-04-27T03:25:22.298Z,13.77
2023-04-27T03:27:48.728Z,17.73
2023-04-27T03:30:15.273Z,14.02
2023-04-27T03:32:41.863Z,18.73
2023-04-27T03:35:09.709Z,13.70
2023-04-27T03:37:36.204Z,17.42
2023-04-27T03:40:02.686Z,12.75
2023-04-27T03:42:29.549Z,16.48
2023-04-27T03:44:56.146Z,20.02
2023-04-27T03:47:22.703Z,15.85
2023-04-27T03:49:49.316Z,18.00
2023-04-27T03:52:15.640Z,17.58
2023-04-27T03:54:41.986Z,19.80
2023-04-27T03:57:08.410Z,17.00
2023-04-27T03:59:34.992Z,19.92
2023-04-27T04:02:02.244Z,15.52
2023-04-27T04:04:29.007Z,22.17
2023-04-27T04:06:55.502Z,23.33
2023-04-27T04:09:23.849Z,24.02
2023-04-27T04:11:52.508Z,26.60
2023-04-27T04:14:18.805Z,22.10
2023-04-27T04:16:45.513Z,18.90
2023-04-27T04:19:12.073Z,19.85
2023-04-27T04:21:38.627Z,19.73
2023-04-27T04:24:05.859Z,23.67
2023-04-27T04:26:32.646Z,21.15
2023-04-27T04:28:59.224Z,16.08
2023-04-27T04:31:26.376Z,21.02
2023-04-27T04:33:53.084Z,19.85
2023-04-27T04:36:19.667Z,22.45
2023-04-27T04:38:45.991Z,16.83
2023-04-27T04:41:12.332Z,17.45
2023-04-27T04:43:38.876Z,16.27
2023-04-27T04:46:06.286Z,19.08
2023-04-27T04:48:32.947Z,21.20
2023-04-27T04:50:59.524Z,16.58
2023-04-27T04:53:26.185Z,19.20
2023-04-27T04:55:52.763Z,19.50
2023-04-27T04:58:19.326Z,19.83
2023-04-27T05:00:45.764Z,21.75
2023-04-27T05:03:12.242Z,17.35
2023-04-27T05:05:38.884Z,17.02
2023-04-27T05:08:05.473Z,17.20
2023-04-27T05:10:32.100Z,22.58
2023-04-27T05:12:58.499Z,17.17
2023-04-27T05:15:25.128Z,21.90
2023-04-27T05:17:51.809Z,22.13
2023-04-27T05:20:18.404Z,21.30
2023-04-27T05:22:44.750Z,19.02
2023-04-27T05:25:11.387Z,19.15
2023-04-27T05:27:37.699Z,25.00
2023-04-27T05:30:04.521Z,25.13
2023-04-27T05:32:31.268Z,20.83
2023-04-27T05:34:57.639Z,17.40
2023-04-27T05:37:24.024Z,18.50
2023-04-27T05:39:50.655Z,19.63
2023-04-27T05:42:17.254Z,19.00
2023-04-27T05:44:43.785Z,21.25
2023-04-27T05:47:10.633Z,17.65
2023-04-27T05:49:37.489Z,18.98
2023-04-27T05:52:04.573Z,19.15
2023-04-27T05:54:31.015Z,20.80
2023-04-27T05:56:57.838Z,19.20
2023-04-27T05:59:24.261Z,17.92
2023-04-27T06:01:51.794Z,20.25
2023-04-27T06:04:18.587Z,21.17
2023-04-27T06:06:45.154Z,15.95
2023-04-27T06:09:11.972Z,16.77
2023-04-27T06:11:39.476Z,26.40
2023-04-27T06:14:05.868Z,22.33
2023-04-27T06:16:32.276Z,16.27
2023-04-27T06:18:58.877Z,22.05
2023-04-27T06:21:25.297Z,14.98
2023-04-27T06:23:51.634Z,17.60
2023-04-27T06:26:17.973Z,16.25
2023-04-27T06:28:44.671Z,21.00
2023-04-27T06:31:11.077Z,16.05
2023-04-27T06:33:37.447Z,16.75
2023-04-27T06:36:03.938Z,20.38
2023-04-27T06:38:30.949Z,17.67
2023-04-27T06:40:57.348Z,20.55
2023-04-27T06:43:23.739Z,18.85
2023-04-27T06:45:50.425Z,17.55
2023-04-27T06:48:17.270Z,17.73
2023-04-27T06:50:43.823Z,20.30
2023-04-27T06:53:10.702Z,15.13
2023-04-27T06:55:37.066Z,20.77
2023-04-27T06:58:03.869Z,12.80
2023-04-27T07:00:31.411Z,15.55
2023-04-27T07:02:58.159Z,15.53
2023-04-27T07:05:24.593Z,13.75
2023-04-27T07:07:51.145Z,20.40
2023-04-27T07:10:17.651Z,19.48
2023-04-27T07:12:44.216Z,10.80
2023-04-27T07:15:10.924Z,14.98
2023-04-27T07:17:44.733Z,14.35
2023-04-27T07:20:11.481Z,9.25
2023-04-27T07:22:37.927Z,14.95
2023-04-27T07:25:06.195Z,10.85
2023-04-27T07:27:32.922Z,12.27
2023-04-27T07:29:59.475Z,12.68
2023-04-27T07:32:26.173Z,15.85
2023-04-27T07:34:55.511Z,11.70
2023-04-27T07:37:23.220Z,11.45
2023-04-27T07:39:53.847Z,8.03
2023-04-27T07:42:22.413Z,15.32
2023-04-27T07:44:50.609Z,11.40
2023-04-27T07:47:18.847Z,8.95
2023-04-27T07:52:14.086Z,9.23
2023-04-27T07:54:40.704Z,8.70
2023-04-27T07:57:13.681Z,7.57
2023-04-27T07:59:42.208Z,11.73
2023-04-27T08:04:47.786Z,5.90
2023-04-27T08:07:16.034Z,7.50
2023-04-27T08:09:42.995Z,11.25
2023-04-27T08:12:09.449Z,6.70
2023-04-27T08:14:36.426Z,5.70
2023-04-27T08:17:05.168Z,8.50
2023-04-27T08:19:31.586Z,4.70
2023-04-27T08:21:57.933Z,7.07
2023-04-27T08:24:24.244Z,7.95
2023-04-27T08:26:50.672Z,6.65
2023-04-27T08:29:26.990Z,8.75
2023-04-27T08:31:56.962Z,8.95
2023-04-27T08:34:23.741Z,11.02
2023-04-27T08:36:59.027Z,4.90
2023-04-27T08:39:25.546Z,8.77
2023-04-27T08:41:52.418Z,6.50
2023-04-27T08:44:21.476Z,6.88
2023-04-27T08:46:48.022Z,7.93
2023-04-27T08:49:16.866Z,10.07
2023-04-27T08:51:44.124Z,6.75
2023-04-27T08:54:11.299Z,4.43
2023-04-27T08:56:37.780Z,5.28
2023-04-27T08:59:04.410Z,5.15
2023-04-27T09:01:32.373Z,5.75
2023-04-27T09:04:01.307Z,4.85
2023-04-27T09:06:32.757Z,4.63
2023-04-27T09:09:00.059Z,6.88
2023-04-27T09:11:38.698Z,5.30
2023-04-27T09:14:20.674Z,4.32
2023-04-27T09:16:56.169Z,4.10
2023-04-27T09:19:28.697Z,5.45
2023-04-27T09:22:14.998Z,4.35
2023-04-27T09:24:53.625Z,4.05
2023-04-27T09:27:22.087Z,4.57
2023-04-27T09:29:48.637Z,4.18
2023-04-27T09:32:20.666Z,3.88
2023-04-27T09:34:47.296Z,7.35
2023-04-27T09:37:14.501Z,5.07
2023-04-27T09:39:42.362Z,5.70
2023-04-27T09:42:09.397Z,7.47
2023-04-27T09:44:36.094Z,4.75
2023-04-27T09:47:02.893Z,3.17
2023-04-27T09:49:29.650Z,4.03
2023-04-27T09:51:58.997Z,7.28
2023-04-27T09:54:33.520Z,2.83
2023-04-27T09:57:23.298Z,5.13
2023-04-27T10:00:11.996Z,6.90
2023-04-27T10:02:56.261Z,3.95
2023-04-27T10:05:36.819Z,7.07
2023-04-27T10:08:05.768Z,7.35
2023-04-27T10:10:42.981Z,8.18
2023-04-27T10:13:26.138Z,8.40
2023-04-27T10:15:55.374Z,7.35
2023-04-27T10:18:27.874Z,6.30
2023-04-27T10:20:54.500Z,6.20
2023-04-27T10:23:28.948Z,4.47
2023-04-27T10:25:56.222Z,6.57
2023-04-27T10:28:22.989Z,6.05
2023-04-27T10:30:49.977Z,3.90
2023-04-27T10:33:22.566Z,4.65
2023-04-27T10:35:59.018Z,6.18
2023-04-27T10:38:30.297Z,4.88
2023-04-27T10:41:05.436Z,4.75
2023-04-27T10:43:36.415Z,5.30
2023-04-27T10:46:15.879Z,8.35
2023-04-27T10:48:43.684Z,6.03
2023-04-27T10:51:14.986Z,4.18
2023-04-27T10:53:41.922Z,4.20
2023-04-27T10:56:09.947Z,5.13
2023-04-27T11:01:08.521Z,10.30
2023-04-27T11:03:35.633Z,4.23
2023-04-27T11:06:05.956Z,6.53
2023-04-27T11:08:34.266Z,5.75
2023-04-27T11:11:01.876Z,6.03
2023-04-27T11:13:28.629Z,5.13
2023-04-27T11:15:57.497Z,6.45
2023-04-27T11:18:26.716Z,10.00
2023-04-27T11:20:55.071Z,5.10
2023-04-27T11:23:26.657Z,7.43
2023-04-27T11:25:53.457Z,6.60
2023-04-27T11:28:20.461Z,7.78
2023-04-27T11:30:47.580Z,6.32
2023-04-27T11:33:14.013Z,4.45
2023-04-27T11:35:40.745Z,5.95
2023-04-27T11:38:07.172Z,5.40
2023-04-27T11:40:35.912Z,6.32
2023-04-27T11:43:05.277Z,3.28
2023-04-27T11:45:32.034Z,4.65
2023-04-27T11:47:59.321Z,6.22
2023-04-27T11:50:26.712Z,3.33
2023-04-27T11:52:53.580Z,4.57
2023-04-27T11:55:24.677Z,5.93
2023-04-27T11:57:58.676Z,5.50
2023-04-27T12:00:25.448Z,4.10
2023-04-27T12:02:52.187Z,6.40
2023-04-27T12:05:20.023Z,5.28
2023-04-27T12:07:46.847Z,7.47
2023-04-27T12:10:13.271Z,5.78
2023-04-27T12:12:39.717Z,9.88
2023-04-27T12:15:08.630Z,6.13
2023-04-27T12:17:35.136Z,6.28
2023-04-27T12:20:02.031Z,5.60
2023-04-27T12:22:28.781Z,5.90
2023-04-27T12:24:55.902Z,7.53
2023-04-27T12:27:22.261Z,5.25
2023-04-27T12:29:48.610Z,8.40
2023-04-27T12:32:15.321Z,6.05
2023-04-27T12:34:42.840Z,4.55
2023-04-27T12:37:09.167Z,8.50
2023-04-27T12:39:35.487Z,7.78
2023-04-27T12:42:02.345Z,8.00
2023-04-27T12:44:28.688Z,8.23
2023-04-27T12:46:55.337Z,7.40
2023-04-27T12:49:22.085Z,7.43
2023-04-27T12:51:51.618Z,7.07
2023-04-27T12:54:18.212Z,6.15
2023-04-27T12:56:44.809Z,6.07
2023-04-27T12:59:11.234Z,10.55
2023-04-27T13:01:37.676Z,7.47
2023-04-27T13:04:05.827Z,8.18
2023-04-27T13:06:32.551Z,7.60
2023-04-27T13:08:59.385Z,10.57
2023-04-27T13:11:26.800Z,9.07
2023-04-27T13:13:54.787Z,6.25
2023-04-27T13:16:22.599Z,7.55
2023-04-27T13:18:51.896Z,8.30
2023-04-27T13:21:18.733Z,7.47
2023-04-27T13:23:45.193Z,7.10
2023-04-27T13:26:11.692Z,10.18
2023-04-27T13:28:38.223Z,6.68
2023-04-27T13:31:05.630Z,6.72
2023-04-27T13:33:33.726Z,9.77
2023-04-27T13:36:03.212Z,7.20
2023-04-27T13:38:29.581Z,6.63
2023-04-27T13:40:56.291Z,8.30
2023-04-27T13:43:22.746Z,8.10
2023-04-27T13:45:50.794Z,7.28
2023-04-27T13:48:17.256Z,6.10
2023-04-27T13:50:43.666Z,7.38
2023-04-27T13:53:10.094Z,7.88
2023-04-27T13:55:37.147Z,9.45
2023-04-27T13:58:03.752Z,7.30
2023-04-27T14:00:33.395Z,6.75
2023-04-27T14:03:01.420Z,8.18
2023-04-27T14:05:27.868Z,6.63
2023-04-27T14:07:54.413Z,9.35
2023-04-27T14:10:22.472Z,12.75
2023-04-27T14:12:49.299Z,8.05
2023-04-27T14:15:16.041Z,9.45
2023-04-27T14:17:42.607Z,8.55
2023-04-27T14:20:09.063Z,10.55
2023-04-27T14:22:36.439Z,9.23
2023-04-27T14:25:03.265Z,11.20
2023-04-27T14:27:31.252Z,9.15
2023-04-27T14:29:57.590Z,10.82
2023-04-27T14:32:24.229Z,8.55
2023-04-27T14:34:50.782Z,11.90
2023-04-27T14:37:17.634Z,9.80
2023-04-27T14:39:47.132Z,8.98
2023-04-27T14:42:13.568Z,12.57
2023-04-27T14:44:39.897Z,9.88
2023-04-27T14:47:06.684Z,8.18
2023-04-27T14:49:33.638Z,10.10
2023-04-27T14:52:03.906Z,14.57
2023-04-27T14:54:31.375Z,8.70
2023-04-27T14:56:59.032Z,10.40
2023-04-27T14:59:25.517Z,8.77
2023-04-27T15:01:52.265Z,8.43
2023-04-27T15:04:19.064Z,8.90
2023-04-27T15:06:46.127Z,9.38
2023-04-27T15:09:13.492Z,9.18
2023-04-27T15:11:40.086Z,10.55
2023-04-27T15:14:07.317Z,8.57
2023-04-27T15:16:33.950Z,9.98
2023-04-27T15:19:00.402Z,8.50
2023-04-27T15:21:27.082Z,9.85
2023-04-27T15:23:53.386Z,9.82
2023-04-27T15:26:19.915Z,9.55
2023-04-27T15:28:46.611Z,8.82
2023-04-27T15:31:13.258Z,12.48
2023-04-27T15:33:39.832Z,9.25
2023-04-27T15:36:06.661Z,10.65
2023-04-27T15:38:32.999Z,9.52
2023-04-27T15:40:59.364Z,10.00
2023-04-27T15:43:25.762Z,9.30
2023-04-27T15:45:52.136Z,9.10
2023-04-27T15:48:18.474Z,9.90
2023-04-27T15:50:46.503Z,12.48
2023-04-27T15:53:12.966Z,10.10
2023-04-27T15:55:39.564Z,11.57
2023-04-27T15:58:06.102Z,10.40
2023-04-27T16:00:33.649Z,13.40
2023-04-27T16:03:00.451Z,10.88
2023-04-27T16:05:27.298Z,10.88
2023-04-27T16:07:53.620Z,10.98
2023-04-27T16:10:20.364Z,8.98
2023-04-27T16:12:46.977Z,10.02
2023-04-27T16:15:13.437Z,9.02
2023-04-27T16:17:40.111Z,10.27
2023-04-27T16:20:07.269Z,10.50
2023-04-27T16:22:34.620Z,11.65
2023-04-27T16:25:01.547Z,8.25
2023-04-27T16:27:28.171Z,9.43
2023-04-27T16:29:55.278Z,8.18
2023-04-27T16:32:22.042Z,12.10
2023-04-27T16:34:48.801Z,11.43
2023-04-27T16:37:15.367Z,11.80
2023-04-27T16:39:41.972Z,8.45
2023-04-27T16:42:08.316Z,11.32
2023-04-27T16:44:34.913Z,7.65
2023-04-27T16:47:01.378Z,8.55
2023-04-27T16:49:27.947Z,9.05
2023-04-27T16:51:56.101Z,8.73
2023-04-27T16:54:22.705Z,9.25
2023-04-27T16:56:50.146Z,9.10
2023-04-27T16:59:17.115Z,11.65
2023-04-27T17:01:43.711Z,12.65
2023-04-27T17:04:10.757Z,13.02
2023-04-27T17:06:37.430Z,8.73
2023-04-27T17:09:04.873Z,8.63
2023-04-27T17:11:31.668Z,9.82
2023-04-27T17:13:58.144Z,8.88
2023-04-27T17:16:26.964Z,8.68
2023-04-27T17:18:54.374Z,9.50
2023-04-27T17:21:22.893Z,10.27
2023-04-27T17:26:20.001Z,10.27
2023-04-27T17:28:48.737Z,11.57
2023-04-27T17:31:18.290Z,10.63
2023-04-27T17:33:46.376Z,11.55
2023-04-27T17:36:12.981Z,8.75
2023-04-27T17:38:39.568Z,10.63
2023-04-27T17:41:06.079Z,8.57
2023-04-27T17:43:32.528Z,9.32
2023-04-27T17:45:59.176Z,10.75
2023-04-27T17:48:25.861Z,10.07
2023-04-27T17:50:53.552Z,9.98
2023-04-27T17:53:20.158Z,9.13
2023-04-27T17:55:47.657Z,8.60
2023-04-27T17:58:15.424Z,9.43
2023-04-27T18:00:43.166Z,11.80
2023-04-27T18:03:11.457Z,8.40
2023-04-27T18:05:38.096Z,9.60
2023-04-27T18:08:04.764Z,9.68
2023-04-27T18:10:31.505Z,15.77
2023-04-27T18:12:58.083Z,9.68
2023-04-27T18:15:24.512Z,11.40
2023-04-27T18:17:51.020Z,12.15
2023-04-27T18:20:17.649Z,12.52
2023-04-27T18:22:44.344Z,11.77
2023-04-27T18:25:11.085Z,13.20
2023-04-27T18:27:37.905Z,10.88
2023-04-27T18:30:07.904Z,12.07
2023-04-27T18:32:35.061Z,16.85
2023-04-27T18:35:02.307Z,12.63
2023-04-27T18:37:28.855Z,15.48
2023-04-27T18:39:55.604Z,13.52
2023-04-27T18:42:23.348Z,14.57
2023-04-27T18:44:54.559Z,16.42
2023-04-27T18:47:21.727Z,15.68
2023-04-27T18:49:48.530Z,16.42
2023-04-27T18:52:14.898Z,14.23
2023-04-27T18:54:42.064Z,11.80
2023-04-27T18:57:08.761Z,12.23
2023-04-27T18:59:37.627Z,17.08
2023-04-27T19:02:04.270Z,11.55
2023-04-27T19:04:31.270Z,12.70
2023-04-27T19:06:57.724Z,10.27
2023-04-27T19:09:24.327Z,13.85
2023-04-27T19:11:59.995Z,10.18
2023-04-27T19:14:30.091Z,12.85
2023-04-27T19:16:56.800Z,10.48
2023-04-27T19:19:23.677Z,10.45
2023-04-27T19:21:50.097Z,11.73
2023-04-27T19:24:16.726Z,9.98
2023-04-27T19:26:44.354Z,8.82
2023-04-27T19:29:10.779Z,13.20
2023-04-27T19:31:37.215Z,13.30
2023-04-27T19:34:04.462Z,9.80
2023-04-27T19:36:31.851Z,11.18
2023-04-27T19:38:58.436Z,7.82
2023-04-27T19:41:25.592Z,15.98
2023-04-27T19:43:52.015Z,14.93
2023-04-27T19:46:18.442Z,10.25
2023-04-27T19:48:44.926Z,13.38
2023-04-27T19:51:11.639Z,11.57
2023-04-27T19:53:38.364Z,10.43
2023-04-27T19:56:05.072Z,9.90
2023-04-27T19:58:31.720Z,11.55
2023-04-27T20:00:58.079Z,11.30
2023-04-27T20:03:24.663Z,11.63
2023-04-27T20:05:51.586Z,12.73
2023-04-27T20:08:18.114Z,11.00
2023-04-27T20:10:44.698Z,11.40
2023-04-27T20:13:11.211Z,10.38
2023-04-27T20:15:37.892Z,14.00
2023-04-27T20:18:04.487Z,13.30
2023-04-27T20:20:30.822Z,14.55
2023-04-27T20:22:57.396Z,14.98
2023-04-27T20:25:25.819Z,12.43
2023-04-27T20:27:54.557Z,15.18
2023-04-27T20:30:21.084Z,12.85
2023-04-27T20:32:47.652Z,14.52
2023-04-27T20:35:14.210Z,16.70
2023-04-27T20:37:41.911Z,15.73
2023-04-27T20:40:12.635Z,14.02
2023-04-27T20:42:40.598Z,11.10
2023-04-27T20:45:10.132Z,11.48
2023-04-27T20:47:36.881Z,14.02
2023-04-27T20:50:04.080Z,12.43
2023-04-27T20:52:33.838Z,11.27
2023-04-27T20:55:00.965Z,11.95
2023-04-27T20:57:27.276Z,13.55
2023-04-27T20:59:53.620Z,11.55
2023-04-27T21:02:20.304Z,10.13
2023-04-27T21:04:47.048Z,10.57
2023-04-27T21:07:13.787Z,8.93
2023-04-27T21:09:40.346Z,13.85
2023-04-27T21:12:06.858Z,20.60
2023-04-27T21:14:33.737Z,13.02
2023-04-27T21:17:00.829Z,13.38
2023-04-27T21:19:27.429Z,13.43
2023-04-27T21:21:54.085Z,10.05
2023-04-27T21:24:20.477Z,16.50
2023-04-27T21:26:46.922Z,16.25
2023-04-27T21:29:13.531Z,13.68
2023-04-27T21:31:40.084Z,11.70
2023-04-27T21:34:06.521Z,13.48
2023-04-27T21:36:33.102Z,15.50
2023-04-27T21:38:59.727Z,17.02
2023-04-27T21:41:26.418Z,12.38
2023-04-27T21:43:52.824Z,12.45
2023-04-27T21:46:19.233Z,17.40
2023-04-27T21:48:45.932Z,13.05
2023-04-27T21:51:12.266Z,12.90
2023-04-27T21:53:38.631Z,14.50
2023-04-27T21:56:05.867Z,11.82
2023-04-27T21:58:32.180Z,13.38
2023-04-27T22:00:58.532Z,14.10
2023-04-27T22:03:25.092Z,14.95
2023-04-27T22:05:52.755Z,13.88
2023-04-27T22:08:19.396Z,15.47
2023-04-27T22:10:46.968Z,17.40
2023-04-27T22:13:18.259Z,17.65
2023-04-27T22:15:45.714Z,12.52
2023-04-27T22:18:12.304Z,15.38
2023-04-27T22:20:38.904Z,12.15
2023-04-27T22:23:05.402Z,13.70
2023-04-27T22:25:33.631Z,12.82
2023-04-27T22:28:00.021Z,12.57
2023-04-27T22:30:31.146Z,11.85
2023-04-27T22:32:58.071Z,10.63
2023-04-27T22:35:27.582Z,13.20
2023-04-27T22:37:55.760Z,13.40
2023-04-27T22:40:22.953Z,12.73
2023-04-27T22:42:49.537Z,12.32
2023-04-27T22:45:16.476Z,13.82
2023-04-27T22:47:44.518Z,13.82
2023-04-27T22:50:12.185Z,15.25
2023-04-27T22:52:42.093Z,14.68
2023-04-27T22:55:09.367Z,12.13
2023-04-27T22:57:36.005Z,12.23
2023-04-27T23:00:05.169Z,11.35
2023-04-27T23:02:32.353Z,12.63
2023-04-27T23:04:59.064Z,10.93
2023-04-27T23:07:25.510Z,10.85
2023-04-27T23:09:52.841Z,14.18
2023-04-27T23:12:20.598Z,17.70
2023-04-27T23:14:47.193Z,13.13
2023-04-27T23:17:15.253Z,12.80
2023-04-27T23:19:41.925Z,14.07
2023-04-27T23:22:08.393Z,12.38
2023-04-27T23:24:34.796Z,15.45
2023-04-27T23:27:01.469Z,11.75
2023-04-27T23:29:27.910Z,11.23
2023-04-27T23:31:54.340Z,10.77
2023-04-27T23:34:23.372Z,10.68
2023-04-27T23:36:49.931Z,12.38
2023-04-27T23:39:16.228Z,12.02
2023-04-27T23:41:42.807Z,13.40
2023-04-27T23:44:09.157Z,14.80
2023-04-27T23:46:35.624Z,13.60
2023-04-27T23:49:01.983Z,12.52
2023-04-27T23:51:28.331Z,12.02
2023-04-27T23:53:54.924Z,11.75
2023-04-27T23:56:22.984Z,13.98
2023-04-27T23:58:49.354Z,13.82
